createdAt,value
2018-05-25T00:01:36.673Z,17.63
2018-05-25T00:05:09.155Z,18.00
2018-05-25T00:08:41.672Z,18.60
2018-05-25T00:12:14.174Z,17.67
2018-05-25T00:15:46.659Z,17.80
2018-05-25T00:19:19.917Z,17.87
2018-05-25T00:22:52.404Z,16.80
2018-05-25T00:26:24.873Z,16.83
2018-05-25T00:29:57.399Z,19.50
2018-05-25T00:33:29.890Z,19.50
2018-05-25T00:37:02.372Z,19.80
2018-05-25T00:40:34.888Z,20.30
2018-05-25T00:44:07.425Z,18.63
2018-05-25T00:47:40.691Z,18.37
2018-05-25T00:51:13.189Z,18.43
2018-05-25T00:54:58.063Z,19.63
2018-05-25T00:58:30.560Z,18.43
2018-05-25T01:02:03.084Z,23.97
2018-05-25T01:05:35.582Z,23.83
2018-05-25T01:09:08.072Z,24.50
2018-05-25T01:12:40.568Z,23.90
2018-05-25T01:16:13.040Z,23.30
2018-05-25T01:19:45.532Z,22.27
2018-05-25T01:23:18.022Z,23.67
2018-05-25T01:26:51.265Z,19.40
2018-05-25T01:30:23.753Z,21.40
2018-05-25T01:33:56.234Z,21.20
2018-05-25T01:37:28.715Z,22.60
2018-05-25T01:41:01.204Z,21.17
2018-05-25T01:44:33.684Z,23.10
2018-05-25T01:48:06.181Z,22.23
2018-05-25T01:51:38.653Z,21.87
2018-05-25T01:55:11.144Z,20.70
2018-05-25T01:58:43.625Z,20.90
2018-05-25T02:02:16.112Z,21.13
2018-05-25T02:05:48.581Z,22.00
2018-05-25T02:09:21.070Z,21.43
2018-05-25T02:12:53.552Z,22.00
2018-05-25T02:16:26.030Z,22.50
2018-05-25T02:19:58.524Z,22.93
2018-05-25T02:23:31.008Z,23.40
2018-05-25T02:27:03.472Z,21.67
2018-05-25T02:30:35.965Z,19.60
2018-05-25T02:34:08.459Z,23.37
2018-05-25T02:37:40.943Z,24.33
2018-05-25T02:41:13.424Z,22.43
2018-05-25T02:44:46.131Z,22.60
2018-05-25T02:48:18.619Z,23.00
2018-05-25T02:51:51.093Z,22.57
2018-05-25T02:55:24.342Z,20.87
2018-05-25T02:58:56.830Z,23.27
2018-05-25T03:02:29.312Z,23.50
2018-05-25T03:06:01.847Z,22.90
2018-05-25T03:09:35.097Z,22.63
2018-05-25T03:13:07.620Z,23.07
2018-05-25T03:16:40.856Z,24.27
2018-05-25T03:20:13.344Z,22.83
2018-05-25T03:23:45.836Z,22.23
2018-05-25T03:27:18.320Z,21.77
2018-05-25T03:30:50.800Z,26.17
2018-05-25T03:34:23.281Z,23.80
2018-05-25T03:37:55.768Z,22.70
2018-05-25T03:41:28.244Z,24.00
2018-05-25T03:45:00.723Z,25.17
2018-05-25T03:48:33.971Z,23.97
2018-05-25T03:52:06.460Z,22.10
2018-05-25T03:55:39.688Z,25.13
2018-05-25T03:59:24.037Z,23.87
2018-05-25T04:02:56.530Z,20.10
2018-05-25T04:06:29.018Z,20.70
2018-05-25T04:10:01.500Z,26.23
2018-05-25T04:13:34.927Z,20.77
2018-05-25T04:17:07.425Z,22.60
2018-05-25T04:20:39.900Z,22.03
2018-05-25T04:24:12.385Z,23.63
2018-05-25T04:27:44.879Z,24.27
2018-05-25T04:31:17.360Z,23.00
2018-05-25T04:34:49.837Z,21.33
2018-05-25T04:38:22.333Z,21.07
2018-05-25T04:41:54.805Z,22.00
2018-05-25T04:45:27.418Z,23.07
2018-05-25T04:48:59.996Z,21.07
2018-05-25T04:52:32.471Z,21.87
2018-05-25T04:56:04.950Z,23.03
2018-05-25T04:59:37.432Z,22.93
2018-05-25T05:03:09.919Z,22.93
2018-05-25T05:06:43.161Z,22.00
2018-05-25T05:10:15.649Z,20.53
2018-05-25T05:13:48.161Z,24.10
2018-05-25T05:17:20.643Z,20.27
2018-05-25T05:20:53.117Z,25.90
2018-05-25T05:24:25.601Z,23.40
2018-05-25T05:27:58.088Z,22.17
2018-05-25T05:31:30.564Z,20.97
2018-05-25T05:35:03.049Z,23.03
2018-05-25T05:38:35.531Z,20.37
2018-05-25T05:42:08.016Z,20.13
2018-05-25T05:45:40.488Z,24.80
2018-05-25T05:49:12.971Z,25.20
2018-05-25T05:52:45.459Z,24.07
2018-05-25T05:56:17.928Z,22.17
2018-05-25T05:59:50.416Z,25.07
2018-05-25T06:03:22.901Z,26.93
2018-05-25T06:06:55.375Z,25.10
2018-05-25T06:10:27.872Z,24.40
2018-05-25T06:14:00.353Z,25.00
2018-05-25T06:17:32.844Z,25.67
2018-05-25T06:21:05.323Z,25.67
2018-05-25T06:24:37.808Z,26.50
2018-05-25T06:28:10.305Z,20.87
2018-05-25T06:31:42.782Z,26.67
2018-05-25T06:35:16.042Z,23.37
2018-05-25T06:38:48.585Z,26.40
2018-05-25T06:42:21.844Z,23.00
2018-05-25T06:45:54.316Z,24.60
2018-05-25T06:49:26.806Z,25.10
2018-05-25T06:52:59.284Z,23.70
2018-05-25T06:56:31.763Z,23.10
2018-05-25T07:00:04.241Z,23.57
2018-05-25T07:03:37.494Z,24.80
2018-05-25T07:07:09.975Z,25.07
2018-05-25T07:10:43.212Z,23.63
2018-05-25T07:14:15.696Z,23.27
2018-05-25T07:17:48.197Z,28.13
2018-05-25T07:21:20.684Z,28.87
2018-05-25T07:24:53.167Z,26.00
2018-05-25T07:28:25.672Z,27.30
2018-05-25T07:31:58.915Z,26.67
2018-05-25T07:35:31.412Z,24.30
2018-05-25T07:39:03.895Z,25.50
2018-05-25T07:42:36.381Z,24.83
2018-05-25T07:46:08.864Z,24.40
2018-05-25T07:49:41.356Z,24.73
2018-05-25T07:53:13.831Z,24.10
2018-05-25T07:56:46.313Z,26.80
2018-05-25T08:00:18.826Z,22.13
2018-05-25T08:03:51.284Z,25.73
2018-05-25T08:07:23.768Z,22.10
2018-05-25T08:10:56.249Z,24.30
2018-05-25T08:14:28.727Z,22.90
2018-05-25T08:18:01.209Z,24.63
2018-05-25T08:21:33.692Z,21.07
2018-05-25T08:25:06.178Z,23.97
2018-05-25T08:28:38.657Z,24.13
2018-05-25T08:32:11.141Z,23.60
2018-05-25T08:35:43.627Z,19.57
2018-05-25T08:39:16.109Z,20.10
2018-05-25T08:42:48.580Z,17.80
2018-05-25T08:46:21.080Z,18.40
2018-05-25T08:49:53.568Z,19.33
2018-05-25T08:53:26.046Z,19.73
2018-05-25T08:56:58.554Z,20.10
2018-05-25T09:00:31.041Z,19.03
2018-05-25T09:04:03.528Z,20.40
2018-05-25T09:07:36.007Z,19.00
2018-05-25T09:11:08.490Z,21.03
2018-05-25T09:14:40.976Z,21.00
2018-05-25T09:18:13.449Z,20.40
2018-05-25T09:21:45.958Z,25.40
2018-05-25T09:25:18.423Z,21.63
2018-05-25T09:28:50.907Z,23.07
2018-05-25T09:32:23.387Z,22.33
2018-05-25T09:35:55.864Z,23.60
2018-05-25T09:39:28.357Z,21.65
2018-05-25T09:43:00.844Z,20.20
2018-05-25T09:46:33.329Z,13.67
2018-05-25T09:50:05.821Z,13.10
2018-05-25T09:53:38.300Z,12.43
2018-05-25T09:57:10.777Z,9.97
2018-05-25T10:00:43.268Z,11.63
2018-05-25T10:04:15.753Z,11.00
2018-05-25T10:07:48.241Z,17.30
2018-05-25T10:11:20.709Z,16.60
2018-05-25T10:14:53.192Z,15.80
2018-05-25T10:18:25.683Z,18.13
2018-05-25T10:21:58.163Z,15.27
2018-05-25T10:25:30.641Z,15.97
2018-05-25T10:29:03.120Z,13.20
2018-05-25T10:32:35.600Z,12.20
2018-05-25T10:36:08.076Z,12.40
2018-05-25T10:39:40.566Z,11.77
2018-05-25T10:43:13.044Z,12.00
2018-05-25T10:46:45.520Z,11.60
2018-05-25T10:50:18.028Z,11.00
2018-05-25T10:53:50.501Z,10.30
2018-05-25T10:57:22.987Z,10.87
2018-05-25T11:00:55.460Z,10.53
2018-05-25T11:04:27.951Z,10.47
2018-05-25T11:08:00.440Z,11.70
2018-05-25T11:11:32.909Z,10.90
2018-05-25T11:15:05.402Z,10.27
2018-05-25T11:18:37.888Z,11.53
2018-05-25T11:22:10.368Z,10.17
2018-05-25T11:25:42.837Z,10.87
2018-05-25T11:29:15.323Z,11.30
2018-05-25T11:32:48.579Z,10.13
2018-05-25T11:36:21.060Z,10.13
2018-05-25T11:39:53.532Z,6.40
2018-05-25T11:43:26.776Z,6.53
2018-05-25T11:46:59.251Z,4.90
2018-05-25T11:50:31.719Z,5.93
2018-05-25T11:54:04.211Z,6.10
2018-05-25T11:57:36.689Z,9.63
2018-05-25T12:01:09.184Z,9.63
2018-05-25T12:04:41.657Z,10.50
2018-05-25T12:08:14.145Z,10.53
2018-05-25T12:11:46.621Z,9.77
2018-05-25T12:15:19.100Z,10.63
2018-05-25T12:18:51.589Z,10.70
2018-05-25T12:22:24.076Z,10.30
2018-05-25T12:25:56.563Z,9.57
2018-05-25T12:29:29.046Z,10.17
2018-05-25T12:33:01.530Z,9.10
2018-05-25T12:36:34.016Z,7.93
2018-05-25T12:40:06.485Z,8.07
2018-05-25T12:43:38.964Z,9.83
2018-05-25T12:47:12.206Z,7.80
2018-05-25T12:50:44.687Z,7.83
2018-05-25T12:54:17.152Z,7.27
2018-05-25T12:57:49.637Z,6.40
2018-05-25T13:01:22.128Z,5.70
2018-05-25T13:04:54.592Z,6.67
2018-05-25T13:08:27.072Z,6.00
2018-05-25T13:11:59.552Z,6.10
2018-05-25T13:15:32.029Z,5.70
2018-05-25T13:19:04.511Z,5.80
2018-05-25T13:22:36.989Z,5.20
2018-05-25T13:26:09.468Z,5.90
2018-05-25T13:29:41.948Z,5.90
2018-05-25T13:33:14.418Z,6.57
2018-05-25T13:36:46.900Z,6.30
2018-05-25T13:40:19.399Z,7.47
2018-05-25T13:43:51.872Z,7.13
2018-05-25T13:47:24.353Z,6.60
2018-05-25T13:50:56.834Z,5.37
2018-05-25T13:54:29.323Z,5.17
2018-05-25T13:58:02.567Z,5.57
2018-05-25T14:01:35.810Z,4.03
2018-05-25T14:05:08.292Z,4.13
2018-05-25T14:08:40.774Z,4.60
2018-05-25T14:12:13.258Z,4.73
2018-05-25T14:15:45.740Z,4.40
2018-05-25T14:19:18.220Z,4.60
2018-05-25T14:22:50.698Z,4.20
2018-05-25T14:26:23.181Z,5.10
2018-05-25T14:29:55.668Z,5.50
2018-05-25T14:33:28.140Z,6.40
2018-05-25T14:37:00.624Z,5.80
2018-05-25T14:40:33.105Z,6.07
2018-05-25T14:44:05.594Z,6.40
2018-05-25T14:47:38.065Z,5.83
2018-05-25T14:51:10.555Z,5.67
2018-05-25T14:54:43.047Z,5.17
2018-05-25T14:58:15.532Z,5.23
2018-05-25T15:01:48.009Z,4.40
2018-05-25T15:05:20.507Z,4.70
2018-05-25T15:08:52.991Z,5.37
2018-05-25T15:12:25.465Z,4.50
2018-05-25T15:15:57.948Z,4.90
2018-05-25T15:19:30.443Z,5.17
2018-05-25T15:23:03.716Z,4.63
2018-05-25T15:26:36.193Z,4.90
2018-05-25T15:30:08.673Z,5.30
2018-05-25T15:33:41.162Z,5.70
2018-05-25T15:37:13.632Z,5.80
2018-05-25T15:40:46.113Z,5.57
2018-05-25T15:44:18.596Z,4.80
2018-05-25T15:47:51.086Z,3.60
2018-05-25T15:51:23.555Z,3.50
2018-05-25T15:54:56.041Z,3.50
2018-05-25T15:58:28.534Z,3.20
2018-05-25T16:02:01.005Z,3.30
2018-05-25T16:05:33.493Z,3.37
2018-05-25T16:09:05.975Z,3.30
2018-05-25T16:12:38.458Z,3.37
2018-05-25T16:16:10.930Z,2.90
2018-05-25T16:19:43.418Z,3.87
2018-05-25T16:23:15.915Z,3.60
2018-05-25T16:26:48.403Z,3.47
2018-05-25T16:30:20.880Z,3.20
2018-05-25T16:33:53.353Z,2.57
2018-05-25T16:37:25.836Z,3.20
2018-05-25T16:40:58.317Z,3.70
2018-05-25T16:44:30.796Z,3.67
2018-05-25T16:48:03.278Z,3.50
2018-05-25T16:51:35.761Z,3.53
2018-05-25T16:55:08.243Z,3.33
2018-05-25T16:58:40.726Z,3.00
2018-05-25T17:02:13.205Z,3.53
2018-05-25T17:05:45.676Z,3.73
2018-05-25T17:09:18.160Z,3.50
2018-05-25T17:12:50.680Z,3.20
2018-05-25T17:16:23.126Z,3.90
2018-05-25T17:19:55.613Z,3.80
2018-05-25T17:23:28.093Z,3.97
2018-05-25T17:27:00.587Z,4.03
2018-05-25T17:30:33.077Z,4.03
2018-05-25T17:34:05.557Z,4.50
2018-05-25T17:37:38.044Z,5.37
2018-05-25T17:41:10.527Z,5.30
2018-05-25T17:44:43.010Z,5.50
2018-05-25T17:48:15.493Z,6.37
2018-05-25T17:51:48.124Z,6.97
2018-05-25T17:55:20.608Z,7.00
2018-05-25T17:58:53.088Z,6.27
2018-05-25T18:02:25.568Z,7.50
2018-05-25T18:05:58.052Z,6.50
2018-05-25T18:09:30.573Z,7.50
2018-05-25T18:13:03.070Z,7.53
2018-05-25T18:16:35.562Z,7.10
2018-05-25T18:20:08.057Z,7.93
2018-05-25T18:23:41.307Z,9.90
2018-05-25T18:27:13.815Z,10.80
2018-05-25T18:30:46.332Z,9.90
2018-05-25T18:34:19.575Z,9.97
2018-05-25T18:37:52.069Z,9.50
2018-05-25T18:41:24.565Z,10.57
2018-05-25T18:44:57.097Z,9.90
2018-05-25T18:48:30.329Z,10.83
2018-05-25T18:52:02.825Z,10.80
2018-05-25T18:55:35.312Z,9.90
2018-05-25T18:59:07.805Z,10.13
2018-05-25T19:02:40.302Z,11.40
2018-05-25T19:06:13.553Z,11.40
2018-05-25T19:09:46.037Z,11.47
2018-05-25T19:13:18.516Z,10.33
2018-05-25T19:16:50.996Z,9.10
2018-05-25T19:20:23.480Z,11.03
2018-05-25T19:23:55.984Z,11.07
2018-05-25T19:27:29.604Z,10.47
2018-05-25T19:31:02.140Z,11.90
2018-05-25T19:34:34.652Z,10.53
2018-05-25T19:38:07.154Z,10.60
2018-05-25T19:41:39.663Z,11.57
2018-05-25T19:45:12.932Z,11.00
2018-05-25T19:48:45.446Z,10.87
2018-05-25T19:52:17.932Z,10.73
2018-05-25T19:55:50.426Z,11.20
2018-05-25T19:59:22.921Z,12.23
2018-05-25T20:02:55.426Z,10.97
2018-05-25T20:06:27.924Z,11.47
2018-05-25T20:10:00.426Z,12.80
2018-05-25T20:13:33.699Z,11.33
2018-05-25T20:17:06.204Z,12.30
2018-05-25T20:20:39.491Z,12.43
2018-05-25T20:24:11.994Z,13.77
2018-05-25T20:27:45.248Z,12.67
2018-05-25T20:31:17.750Z,14.00
2018-05-25T20:34:50.260Z,14.13
2018-05-25T20:38:23.525Z,12.93
2018-05-25T20:41:56.007Z,13.43
2018-05-25T20:45:28.516Z,13.67
2018-05-25T20:49:01.813Z,13.00
2018-05-25T20:52:34.309Z,14.90
2018-05-25T20:56:07.568Z,14.20
2018-05-25T20:59:40.055Z,13.70
2018-05-25T21:03:12.569Z,13.40
2018-05-25T21:06:45.816Z,13.57
2018-05-25T21:10:18.314Z,13.77
2018-05-25T21:13:50.904Z,15.30
2018-05-25T21:17:23.400Z,12.40
2018-05-25T21:20:55.896Z,16.27
2018-05-25T21:24:29.160Z,14.10
2018-05-25T21:28:01.673Z,14.67
2018-05-25T21:31:34.145Z,15.70
2018-05-25T21:35:06.637Z,15.50
2018-05-25T21:38:39.137Z,14.60
2018-05-25T21:42:12.405Z,14.10
2018-05-25T21:45:44.892Z,15.80
2018-05-25T21:49:17.408Z,14.37
2018-05-25T21:52:49.918Z,16.90
2018-05-25T21:56:22.398Z,16.23
2018-05-25T21:59:54.881Z,17.23
2018-05-25T22:03:27.360Z,16.43
2018-05-25T22:06:59.909Z,16.97
2018-05-25T22:10:32.401Z,17.20
2018-05-25T22:14:04.928Z,17.03
2018-05-25T22:17:37.425Z,18.27
2018-05-25T22:21:09.896Z,17.20
2018-05-25T22:24:42.384Z,17.43
2018-05-25T22:28:14.876Z,17.27
2018-05-25T22:31:47.361Z,16.83
2018-05-25T22:35:19.843Z,17.50
2018-05-25T22:38:52.333Z,16.00
2018-05-25T22:42:36.668Z,15.50
2018-05-25T22:46:21.080Z,17.60
2018-05-25T22:50:05.459Z,16.03
2018-05-25T22:53:42.959Z,18.30
2018-05-25T22:57:15.485Z,18.07
2018-05-25T23:00:48.000Z,16.60
2018-05-25T23:04:21.264Z,15.77
2018-05-25T23:07:53.769Z,15.00
2018-05-25T23:11:27.039Z,16.73
2018-05-25T23:14:59.536Z,16.20
2018-05-25T23:18:32.043Z,17.30
2018-05-25T23:22:05.296Z,17.67
2018-05-25T23:25:37.768Z,19.63
2018-05-25T23:29:10.272Z,18.10
2018-05-25T23:32:42.791Z,18.93
2018-05-25T23:36:15.282Z,18.07
2018-05-25T23:39:47.766Z,18.90
2018-05-25T23:43:20.261Z,20.00
2018-05-25T23:46:52.777Z,18.50
2018-05-25T23:50:25.265Z,18.90
2018-05-25T23:53:57.757Z,18.53
2018-05-25T23:57:30.246Z,18.20
